Terminal Aerodrome Forecast
Issued by NWS

Home | Current Version | Previous Version | Text Only | Print | Product List | Glossary On
Versions: 1 2 3 4 5 6 7 8 9 10 11 12
000
FTUS46 KHNX 280500
TAFMCE
TAF
KMCE 280520Z 2806/2906 31009KT P6SM SCT200
     FM281200 VRB04KT P6SM BKN120 BKN200
     FM282000 32010KT P6SM BKN120 BKN200=

USA.gov is the U.S. government's official web portal to all federal, state and local government web resources and services.